Time;durP1;ratioP1;P1;durP2;ratioP2;P2;SDS_P1;SDS_P2;PMS_P1;PMS_P2;Temp;Humidity;BMP_temperature;BMP_pressure;BME280_temperature;BME280_humidity;BME280_pressure;Samples;Min_cycle;Max_cycle;Signal;HPM_P1;HPM_P2
2022/08/08 00:08:11;;;;;;;2.75;1.70;;;;;;;19.11;82.70;102222.06;21058192;28;20044;-78
2022/08/08 00:18:21;;;;;;;2.10;1.50;;;;;;;19.11;82.63;102213.94;21038649;28;20082;-79
2022/08/08 00:28:28;;;;;;;1.50;1.40;;;;;;;19.10;82.54;102214.94;21033788;28;20052;-79
2022/08/08 00:38:55;;;;;;;1.63;1.40;;;;;;;19.09;82.43;102215.91;21054431;28;20496;-79
2022/08/08 00:49:34;;;;;;;1.67;1.55;;;;;;;19.10;82.34;102209.53;21054291;28;20050;-78
2022/08/08 00:59:35;;;;;;;1.73;1.50;;;;;;;19.08;82.33;102197.97;21036157;28;20048;-79
2022/08/08 01:10:15;;;;;;;1.90;1.50;;;;;;;18.90;82.15;102181.25;21050998;28;20040;-79
2022/08/08 01:20:34;;;;;;;1.58;1.42;;;;;;;18.91;81.95;102186.53;21021618;28;20045;-79
2022/08/08 01:30:52;;;;;;;1.52;1.30;;;;;;;19.05;81.77;102217.94;20884166;28;20408;-79
2022/08/08 01:41:25;;;;;;;1.40;1.30;;;;;;;19.05;81.60;102211.72;20883844;28;20044;-79
2022/08/08 01:51:59;;;;;;;1.98;1.38;;;;;;;19.04;81.24;102216.22;20866715;28;20584;-79
2022/08/08 02:02:45;;;;;;;1.40;1.30;;;;;;;19.03;81.40;102219.06;20880816;28;20125;-79
2022/08/08 02:12:58;;;;;;;1.23;1.13;;;;;;;18.88;80.73;102188.59;20880654;28;20117;-79
2022/08/08 02:23:13;;;;;;;1.70;1.30;;;;;;;19.02;81.07;102220.03;20964722;28;20051;-79
2022/08/08 02:33:54;;;;;;;1.25;1.15;;;;;;;19.03;80.66;102224.44;21045284;28;20058;-78
2022/08/08 02:44:24;;;;;;;1.55;1.30;;;;;;;19.01;80.39;102216.44;20921577;28;20052;-79
2022/08/08 02:54:53;;;;;;;1.67;1.30;;;;;;;19.01;80.67;102215.59;20917705;28;20386;-78
2022/08/08 03:05:25;;;;;;;1.30;1.17;;;;;;;18.99;80.83;102216.53;20914153;28;20127;-77
2022/08/08 03:16:35;;;;;;;1.50;1.25;;;;;;;18.99;80.75;102224.66;20925663;28;20051;-78
2022/08/08 03:26:43;;;;;;;1.70;1.38;;;;;;;18.98;80.46;102224.78;20782787;28;20158;-78
2022/08/08 03:36:47;;;;;;;2.25;1.10;;;;;;;18.77;80.57;102213.66;20957977;28;20118;-78
2022/08/08 03:46:49;;;;;;;1.55;1.20;;;;;;;18.96;80.58;102243.72;20958410;28;20121;-77
2022/08/08 03:56:56;;;;;;;1.30;1.20;;;;;;;18.96;80.26;102246.44;20957228;28;20044;-78
2022/08/08 04:06:58;;;;;;;2.88;1.30;;;;;;;18.67;80.25;102208.94;20957018;28;20047;-78
2022/08/08 04:17:06;;;;;;;1.60;1.20;;;;;;;18.95;80.05;102260.03;20950149;28;20097;-78
2022/08/08 04:27:30;;;;;;;1.60;1.00;;;;;;;18.94;80.06;102264.56;21040541;28;20073;-77
2022/08/08 04:37:53;;;;;;;1.30;1.20;;;;;;;18.93;80.11;102257.44;21040034;28;20118;-77
2022/08/08 04:48:00;;;;;;;1.10;0.98;;;;;;;18.74;79.83;102224.66;21037018;28;20097;-78
2022/08/08 04:58:05;;;;;;;1.27;1.17;;;;;;;18.92;79.78;102260.28;21051144;28;20051;-77
2022/08/08 05:08:12;;;;;;;1.08;0.90;;;;;;;18.92;79.78;102265.66;21052944;28;20431;-77
2022/08/08 05:18:16;;;;;;;1.05;0.95;;;;;;;18.23;79.60;102161.72;21011674;28;20101;-78
2022/08/08 05:28:19;;;;;;;1.17;1.08;;;;;;;18.80;79.55;102257.47;20972920;28;20064;-77
2022/08/08 05:38:46;;;;;;;1.10;1.00;;;;;;;18.20;79.40;102172.72;20951850;28;20052;-77
2022/08/08 05:48:48;;;;;;;1.33;0.90;;;;;;;18.91;79.41;102285.53;20947879;28;20119;-77
2022/08/08 05:59:03;;;;;;;1.88;1.25;;;;;;;18.83;79.44;102278.84;20923066;28;20059;-77
2022/08/08 06:09:09;;;;;;;1.20;1.10;;;;;;;18.83;79.48;102273.44;20936249;28;20405;-78
2022/08/08 06:19:31;;;;;;;0.90;0.90;;;;;;;18.90;79.58;102300.00;20949713;28;20057;-78
2022/08/08 06:29:45;;;;;;;0.98;0.85;;;;;;;18.89;80.07;102307.22;20916302;28;20033;-79
2022/08/08 06:40:05;;;;;;;0.90;0.90;;;;;;;18.89;80.47;102307.22;20881611;28;20055;-78
2022/08/08 06:50:11;;;;;;;1.05;0.95;;;;;;;18.84;80.87;102301.28;20853828;28;20523;-79
2022/08/08 07:00:18;;;;;;;1.05;1.00;;;;;;;18.81;81.17;102296.09;20908126;28;20060;-78
2022/08/08 07:10:37;;;;;;;1.30;1.10;;;;;;;18.90;81.65;102308.94;20915368;28;20159;-78
2022/08/08 07:20:47;;;;;;;1.50;1.00;;;;;;;18.92;81.69;102315.09;20920632;28;20044;-78
2022/08/08 07:30:54;;;;;;;1.42;1.00;;;;;;;18.94;81.90;102307.75;20904182;28;20075;-78
2022/08/08 07:40:57;;;;;;;1.02;0.70;;;;;;;18.98;81.99;102325.47;20906460;28;20102;-76
2022/08/08 07:51:08;;;;;;;1.17;1.05;;;;;;;19.01;81.71;102321.72;20895832;28;20051;-78
2022/08/08 08:01:29;;;;;;;1.73;0.95;;;;;;;18.99;81.45;102311.00;20901779;28;20040;-80
2022/08/08 08:11:52;;;;;;;1.10;0.70;;;;;;;19.13;81.37;102344.28;20908895;28;20045;-78
2022/08/08 08:21:59;;;;;;;1.00;0.75;;;;;;;19.19;81.30;102342.94;20915769;28;20052;-78
2022/08/08 08:32:13;;;;;;;2.58;1.25;;;;;;;19.01;80.96;102291.19;20883987;28;20057;-78
2022/08/08 08:42:33;;;;;;;1.10;0.95;;;;;;;19.32;80.79;102357.31;20912123;28;20060;-78
2022/08/08 08:52:42;;;;;;;2.17;0.93;;;;;;;19.32;80.91;102359.13;20895713;28;20076;-78
2022/08/08 09:03:05;;;;;;;1.10;0.75;;;;;;;19.38;80.80;102359.56;20890646;28;20106;-80
2022/08/08 09:13:12;;;;;;;3.33;1.00;;;;;;;19.23;81.14;102333.69;20894555;28;20572;-80
2022/08/08 09:23:17;;;;;;;1.17;0.73;;;;;;;19.16;81.38;102341.34;20909203;28;20047;-80
2022/08/08 09:33:28;;;;;;;1.27;0.75;;;;;;;19.25;81.79;102364.97;20921677;28;20056;-80
2022/08/08 09:43:51;;;;;;;6.28;1.08;;;;;;;18.99;81.98;102329.91;20890841;28;20063;-81
2022/08/08 09:54:14;;;;;;;1.77;1.00;;;;;;;19.19;82.05;102365.44;20881842;28;21386;-79
2022/08/08 10:04:36;;;;;;;1.25;0.70;;;;;;;19.19;82.22;102369.94;20911434;28;20056;-80
2022/08/08 10:14:59;;;;;;;1.35;0.77;;;;;;;19.19;82.10;102365.44;20902272;28;20410;-80
2022/08/08 10:25:04;;;;;;;1.38;0.80;;;;;;;19.16;82.07;102357.56;20884592;28;20127;-80
2022/08/08 10:35:15;;;;;;;1.35;0.88;;;;;;;19.16;82.03;102357.56;20887810;28;20450;-79
2022/08/08 10:45:44;;;;;;;2.13;0.93;;;;;;;19.23;81.96;102363.38;20916158;28;20048;-80
2022/08/08 10:55:57;;;;;;;2.45;0.80;;;;;;;19.24;82.19;102363.25;20926484;28;20063;-80
2022/08/08 11:06:00;;;;;;;1.15;0.68;;;;;;;19.25;81.92;102354.19;20897285;28;20073;-79
2022/08/08 11:16:03;;;;;;;2.25;0.80;;;;;;;19.12;82.00;102335.28;20910856;28;20671;-80
2022/08/08 11:26:26;;;;;;;1.73;0.80;;;;;;;19.26;81.73;102360.47;20919932;28;20566;-80
2022/08/08 11:36:31;;;;;;;1.40;0.80;;;;;;;18.93;81.89;102321.38;20914661;28;20071;-80
2022/08/08 11:46:36;;;;;;;1.42;0.90;;;;;;;19.22;81.88;102365.19;20909557;28;20425;-81
2022/08/08 11:56:39;;;;;;;1.05;0.60;;;;;;;19.21;81.90;102374.28;20900734;28;20049;-80
2022/08/08 12:06:42;;;;;;;0.90;0.70;;;;;;;19.20;81.85;102360.88;20895146;28;20045;-81
2022/08/08 12:16:52;;;;;;;0.80;0.70;;;;;;;19.18;81.70;102360.13;20916163;28;20500;-80
2022/08/08 12:26:53;;;;;;;1.67;0.77;;;;;;;19.21;81.36;102366.19;20911435;28;20131;-80
2022/08/08 12:37:04;;;;;;;1.55;0.70;;;;;;;19.16;81.30;102343.16;20908933;28;20055;-80
2022/08/08 12:47:08;;;;;;;1.17;0.60;;;;;;;19.23;80.99;102347.19;20941091;28;20044;-80
2022/08/08 12:57:23;;;;;;;0.80;0.60;;;;;;;19.25;80.98;102347.94;20933149;28;20045;-80
2022/08/08 13:07:40;;;;;;;0.80;0.50;;;;;;;19.23;80.89;102356.13;20890151;28;20358;-80
2022/08/08 13:18:01;;;;;;;1.03;0.47;;;;;;;19.22;80.75;102361.63;20908214;28;20531;-81
2022/08/08 13:28:15;;;;;;;1.58;0.60;;;;;;;19.00;80.78;102328.06;20918684;28;20076;-80
2022/08/08 13:38:17;;;;;;;1.83;0.70;;;;;;;19.08;81.12;102343.75;20903737;28;20056;-80
2022/08/08 13:48:20;;;;;;;0.95;0.50;;;;;;;19.21;81.13;102352.69;20911828;28;20094;-80
2022/08/08 13:58:28;;;;;;;0.80;0.50;;;;;;;19.20;81.40;102359.06;20903013;28;20080;-80
2022/08/08 14:08:30;;;;;;;1.42;0.60;;;;;;;19.21;81.33;102349.09;20895753;28;20052;-80
2022/08/08 14:18:35;;;;;;;0.90;0.70;;;;;;;19.21;81.36;102347.28;20897259;28;20111;-81
2022/08/08 14:28:56;;;;;;;0.93;0.65;;;;;;;18.75;81.59;102274.97;20920618;28;20041;-80
2022/08/08 14:38:58;;;;;;;0.55;0.50;;;;;;;18.91;81.57;102296.31;20906848;28;20053;-80
2022/08/08 14:49:11;;;;;;;1.10;0.60;;;;;;;19.20;81.69;102340.16;20900586;28;20540;-80
2022/08/08 14:59:28;;;;;;;0.77;0.60;;;;;;;19.20;82.03;102339.28;20896929;28;20183;-80
2022/08/08 15:09:46;;;;;;;1.05;0.75;;;;;;;18.96;81.78;102308.50;20886454;28;20513;-80
2022/08/08 15:19:48;;;;;;;0.57;0.52;;;;;;;19.20;81.92;102344.69;20908458;28;20072;-79
2022/08/08 15:29:49;;;;;;;0.68;0.52;;;;;;;19.18;82.30;102335.81;20892642;28;20055;-79
2022/08/08 15:39:52;;;;;;;1.10;0.70;;;;;;;19.01;82.05;102307.38;20916376;28;20060;-80
2022/08/08 15:49:55;;;;;;;1.52;0.65;;;;;;;19.20;82.43;102323.06;20901672;28;20049;-79
2022/08/08 15:59:56;;;;;;;1.10;0.60;;;;;;;19.20;82.29;102336.56;20893588;28;20071;-79
2022/08/08 16:10:18;;;;;;;2.30;0.70;;;;;;;19.19;83.02;102348.34;20861123;28;20045;-83
2022/08/08 16:20:39;;;;;;;3.47;0.93;;;;;;;19.24;84.88;102347.06;20884912;28;20543;-82
2022/08/08 16:30:42;;;;;;;3.00;1.00;;;;;;;19.20;84.47;102332.06;20907075;28;20072;-82
2022/08/08 16:40:44;;;;;;;2.42;0.88;;;;;;;19.32;84.52;102351.91;20893799;28;20049;-82
2022/08/08 16:50:46;;;;;;;2.92;0.95;;;;;;;19.27;84.81;102352.22;20892249;28;20087;-82
2022/08/08 17:00:47;;;;;;;2.17;0.80;;;;;;;19.25;85.15;102346.09;20886263;28;20040;-84
2022/08/08 17:10:52;;;;;;;1.35;0.80;;;;;;;19.23;85.10;102345.34;20894600;28;20047;-82
2022/08/08 17:21:11;;;;;;;2.30;0.70;;;;;;;19.04;85.08;102312.53;20894539;28;20040;-77
2022/08/08 17:31:13;;;;;;;1.38;0.85;;;;;;;19.15;85.33;102347.72;20891093;28;20052;-80
2022/08/08 17:41:36;;;;;;;3.28;0.60;;;;;;;19.14;85.31;102346.00;20894171;28;20052;-79
2022/08/08 17:51:44;;;;;;;1.70;0.90;;;;;;;19.18;85.51;102358.31;20881202;28;20049;-81
2022/08/08 18:02:00;;;;;;;3.47;1.00;;;;;;;19.18;85.58;102361.00;20894908;28;20048;-82
2022/08/08 18:12:04;;;;;;;5.10;1.25;;;;;;;19.21;91.08;102368.88;20902654;28;20064;-81
2022/08/08 18:22:13;;;;;;;3.53;1.30;;;;;;;19.13;93.08;102350.53;20896528;28;20064;-81
2022/08/08 18:32:35;;;;;;;2.45;1.10;;;;;;;19.33;92.33;102372.53;20915736;28;20052;-80
2022/08/08 18:42:43;;;;;;;5.38;1.55;;;;;;;19.35;91.98;102396.72;20953013;28;20048;-80
2022/08/08 18:52:50;;;;;;;2.75;1.00;;;;;;;19.32;92.27;102399.66;20961684;28;20127;-80
2022/08/08 19:02:55;;;;;;;4.07;1.67;;;;;;;19.19;91.65;102396.94;21020764;28;20139;-80
2022/08/08 19:13:06;;;;;;;2.20;1.08;;;;;;;18.96;91.24;102381.38;21045105;28;20039;-80
2022/08/08 19:23:21;;;;;;;2.00;1.07;;;;;;;18.92;90.60;102406.84;21043956;28;20048;-79
2022/08/08 19:33:24;;;;;;;3.65;0.95;;;;;;;19.19;90.14;102441.03;21043882;28;20052;-79
2022/08/08 19:43:46;;;;;;;1.98;1.00;;;;;;;18.98;89.46;102424.47;21043224;28;20052;-80
2022/08/08 19:54:04;;;;;;;1.95;1.05;;;;;;;19.18;89.49;102465.41;20995467;28;20075;-80
2022/08/08 20:04:07;;;;;;;6.45;0.98;;;;;;;19.18;89.21;102477.09;21057628;28;20408;-79
2022/08/08 20:14:08;;;;;;;1.15;0.80;;;;;;;18.86;88.98;102439.66;21059308;28;20052;-79
2022/08/08 20:24:30;;;;;;;2.20;1.00;;;;;;;19.15;88.81;102496.19;21057006;28;20132;-80
2022/08/08 20:34:32;;;;;;;1.48;0.85;;;;;;;19.15;88.79;102496.19;21055424;28;20048;-79
2022/08/08 20:44:35;;;;;;;0.80;0.70;;;;;;;19.15;88.48;102501.59;21055611;28;20062;-79
2022/08/08 20:54:38;;;;;;;0.82;0.68;;;;;;;18.96;88.48;102462.31;21033406;28;20055;-79
2022/08/08 21:04:44;;;;;;;0.73;0.60;;;;;;;19.13;88.30;102495.44;21051737;28;20109;-80
2022/08/08 21:14:50;;;;;;;1.95;0.90;;;;;;;19.12;88.32;102493.72;21053384;28;20047;-80
2022/08/08 21:24:53;;;;;;;0.88;0.80;;;;;;;18.93;88.29;102469.78;21034710;28;20079;-79
2022/08/08 21:34:55;;;;;;;0.93;0.80;;;;;;;18.78;87.99;102442.00;21051731;28;20043;-80
2022/08/08 21:45:16;;;;;;;0.70;0.65;;;;;;;19.10;88.28;102506.44;21051740;28;20056;-79
2022/08/08 21:55:38;;;;;;;1.40;0.73;;;;;;;19.09;88.24;102499.31;21039115;28;20059;-79
2022/08/08 22:05:59;;;;;;;0.90;0.70;;;;;;;19.07;88.16;102496.72;21049593;28;20131;-80
2022/08/08 22:16:02;;;;;;;1.30;0.85;;;;;;;19.08;88.37;102508.41;21029843;28;20051;-79
2022/08/08 22:26:06;;;;;;;1.53;0.90;;;;;;;18.85;88.14;102489.19;21047847;28;20040;-80
2022/08/08 22:36:28;;;;;;;0.85;0.70;;;;;;;19.05;87.92;102509.44;21044559;28;20063;-80
2022/08/08 22:46:35;;;;;;;0.90;0.75;;;;;;;19.05;87.99;102517.56;21044864;28;20071;-80
2022/08/08 22:56:40;;;;;;;1.45;0.90;;;;;;;19.05;87.95;102519.41;21029116;28;20047;-79
2022/08/08 23:06:41;;;;;;;1.30;0.80;;;;;;;19.03;88.01;102524.88;21045448;28;20051;-79
2022/08/08 23:16:45;;;;;;;0.88;0.70;;;;;;;18.85;87.54;102491.88;21043414;28;20475;-79
2022/08/08 23:26:58;;;;;;;2.13;1.00;;;;;;;19.02;87.93;102525.84;21044490;28;20054;-79
2022/08/08 23:37:00;;;;;;;1.23;0.70;;;;;;;18.98;87.79;102541.38;21025652;28;20051;-80
2022/08/08 23:47:03;;;;;;;1.00;0.90;;;;;;;19.02;87.57;102541.22;21026077;28;20069;-80
2022/08/08 23:57:25;;;;;;;1.27;0.88;;;;;;;19.00;87.63;102541.28;21034430;28;20048;-79
